Terminal Aerodrome Forecast
Issued by NWS

Home | Current Version | Previous Version | Text Only | Print | Product List | Glossary On
Versions: 1 2 3 4 5 6 7 8 9 10 11 12 13 14 15 16 17 18
000
FTUS46 KSEW 221400 AAB
TAFOLM
TAF AMD
KOLM 221440Z 2215/2312 20013KT 6SM -RA BR SCT011 BKN028 OVC045
      TEMPO 2215/2218 3SM RA BR BKN011 OVC028
     FM221800 19013G20KT 4SM -RA BR OVC030
     FM230700 23008KT P6SM OVC030=

USA.gov is the U.S. government's official web portal to all federal, state and local government web resources and services.